Jackson Springs, North Carolina
Current Conditions -  °F | °C
As of 9:15 AM on Monday 24 Nov 2014 (Local Time) from KSOP Reporting Station
Overcast Overcast  
Wind Chill: 63°   Ceiling: 2700
Heat Index: 63°   Visibility: 10mi
Dew Point:   Wind: 12mph
Humidity: 11%   Direction: 210°SSW
Pressure: 29.85"   Gusts: NA
Location:  35.21°N, 79.63°W
Report Text: KSOP 241415Z AUTO 21010KT 10SM OVC027 17/M14 A2985 RMK AO1
Loading
Personal Weather Stations






























Interactive Weather Map New forecast layout! Learn more

10-Day Weather Forecast

Advertisements
Track Severe Weather on mobile